• Join FlightAware (Why Join?)
  • Login
  • US Flag 
01:03AM EDT


 

Airport Tracker/Info


-or-


 

Live Flight TrackerFlight Track Log ✈ KAP82 ✈ 27-Aug-2013 ✈ KALB - KOGS

Flight Track Log - Related Links

Times and Time Zones

All times are in EDT time to prevent confusion due to time zone crossing. See the KAP82 flight status page for this flight to view local times or setup timezone preferences in your user account.

Time Position Orientation Groundspeed Altitude Reporting Facility
EDT Latitude Longitude Course Direction KTS MPH feet Rate Location/Type
10:35AM 42.7964 -73.8181 349° North 107 123 1,500  Level Boston Center
10:36AM 42.8275 -73.8244 351° North 108 124 2,100 600 Climbing Boston Center
10:37AM 42.8503 -73.8306 349° North 111 128 2,600 600 Climbing Boston Center
10:38AM 42.8817 -73.8369 352° North 114 131 3,300 660 Climbing Boston Center
10:39AM 42.9169 -73.8436 352° North 111 128 4,100 540 Climbing Boston Center
10:40AM 42.9419 -73.8525 345° North 108 124 4,500 600 Climbing Boston Center
10:41AM 42.9772 -73.8589 352° North 111 128 5,400 600 Climbing Boston Center
10:42AM 43.0000 -73.8625 353° North 110 127 5,900 600 Climbing Boston Center
10:43AM 43.0311 -73.8717 348° North 100 115 6,600 540 Climbing Boston Center
10:44AM 43.0583 -73.8781 350° North 100 115 7,000 240 Climbing Boston Center
10:45AM 43.0956 -73.8872 350° North 113 130 7,100 60 Climbing Boston Center
10:46AM 43.1247 -73.9050 336° Northwest 118 136 7,200 180 Climbing Boston Center
10:48AM 43.1842 -73.9633 324° Northwest 130 150 7,700 240 Climbing Boston Center
10:49AM 43.2172 -73.9956 325° Northwest 130 150 8,100 180 Climbing Boston Center
10:50AM 43.2458 -74.0250 323° Northwest 135 155 8,100  Level Boston Center
10:51AM 43.2831 -74.0600 326° Northwest 135 155 8,100  Level Boston Center
10:52AM 43.3117 -74.0894 323° Northwest 142 163 8,100  Level Boston Center
10:53AM 43.3486 -74.1247 325° Northwest 148 170 8,100  Level Boston Center
10:54AM 43.3794 -74.1569 323° Northwest 148 170 8,100  Level Boston Center
10:55AM 43.4164 -74.1922 325° Northwest 148 170 8,100  Level Boston Center
10:56AM 43.4514 -74.2247 326° Northwest 148 170 8,100 -60 Level Boston Center
10:57AM 43.4842 -74.2572 324° Northwest 148 170 8,000  Descending Boston Center
10:58AM 43.5192 -74.2897 326° Northwest 148 170 8,100  Climbing Boston Center
10:59AM 43.5539 -74.3281 321° Northwest 148 170 8,100 -60 Level Boston Center
11:00AM 43.5889 -74.3606 326° Northwest 148 170 8,000  Descending Boston Center
11:01AM 43.6236 -74.3933 326° Northwest 148 170 8,100  Climbing Boston Center
11:02AM 43.6564 -74.4289 322° Northwest 148 170 8,100 -60 Level Boston Center
11:03AM 43.6914 -74.4644 324° Northwest 148 170 8,000  Descending Boston Center
11:04AM 43.7261 -74.4972 326° Northwest 148 170 8,100  Climbing Boston Center
11:05AM 43.7608 -74.5300 326° Northwest 148 170 8,100 -60 Level Boston Center
11:06AM 43.7936 -74.5628 324° Northwest 148 170 8,000 -60 Descending Boston Center
11:07AM 43.8286 -74.5956 326° Northwest 148 170 8,000  Level Boston Center
11:08AM 43.8611 -74.6342 319° Northwest 148 170 8,100  Climbing Boston Center
11:09AM 43.8958 -74.6672 326° Northwest 148 170 8,000 -60 Descending Boston Center
11:10AM 43.9286 -74.7003 324° Northwest 148 170 8,000  Level Boston Center
11:11AM 43.9633 -74.7333 326° Northwest 148 170 8,000  Level Boston Center
11:12AM 43.9983 -74.7633 328° Northwest 148 170 8,100  Climbing Boston Center
11:13AM 44.0350 -74.7936 329° Northwest 148 170 8,000 -60 Descending Boston Center
11:14AM 44.0700 -74.8211 331° Northwest 148 170 8,000  Level Boston Center
11:15AM 44.1028 -74.8514 326° Northwest 148 170 8,000  Level Boston Center
11:16AM 44.1333 -74.8758 330° Northwest 143 165 8,000  Level Boston Center
11:17AM 44.1622 -74.9000 329° Northwest 132 152 8,000  Level Boston Center
11:18AM 44.1886 -74.9244 326° Northwest 121 139 8,000  Level Boston Center
11:19AM 44.2172 -74.9486 329° Northwest 121 139 8,000  Level Boston Center
11:20AM 44.2419 -74.9672 332° Northwest 121 139 8,000  Level Boston Center
11:21AM 44.2683 -74.9914 327° Northwest 121 139 8,000  Level Boston Center
11:22AM 44.2953 -75.0100 334° Northwest 116 133 8,000 -180 Level Boston Center
11:23AM 44.3258 -75.0375 327° Northwest 121 139 7,700 -300 Descending Boston Center
11:24AM 44.3586 -75.0622 332° Northwest 121 139 7,500 -300 Descending Boston Center
11:25AM 44.3892 -75.0925 325° Northwest 121 139 7,200 -300 Descending Boston Center
11:26AM 44.4219 -75.1144 334° Northwest 121 139 7,000 -300 Descending Boston Center
11:27AM 44.4547 -75.1419 329° Northwest 126 145 6,700 -300 Descending Boston Center
11:28AM 44.4872 -75.1725 326° Northwest 126 145 6,500 -300 Descending Boston Center
11:29AM 44.5200 -75.1975 331° Northwest 132 152 6,100 -420 Descending Boston Center
11:30AM 44.5547 -75.2253 330° Northwest 138 159 5,700 -540 Descending Boston Center
11:31AM 44.5917 -75.2561 329° Northwest 138 159 5,100 -300 Descending Boston Center
11:32AM 44.6261 -75.2869 328° Northwest 143 165 5,100  Level Boston Center
11:33AM 44.6569 -75.3119 330° Northwest 138 159 5,100  Level Boston Center
11:34AM 44.6850 -75.3483 317° Northwest 133 153 5,100 -60 Level Boston Center
11:35AM 44.6992 -75.3722 310° West 116 133 5,000 -480 Descending Boston Center
11:36AM 44.6725 -75.3506 150° Southeast 37 43 4,200 -660 Descending Boston Center
11:37AM 44.6867 -75.2811 74° East 115 132 3,700 -420 Descending Boston Center
11:38AM 44.6983 -75.2350 70° East 123 142 3,400 -300 Descending Boston Center
11:40AM 44.6868 -75.3134 258° West  Level FlightAware Approximate
11:47AM 44.6667 -75.4500 264° West  Level FlightAware Approximate